Terminal Aerodrome Forecast
Issued by NWS Omaha/Valley, NE

Home | Current Version | Previous Version | Text Only | Print | Product List | Glossary On
Versions: 1 2 3 4 5 6 7 8 9 10 11 12 13 14 15 16 17 18 19 20 21 22
000
FTUS43 KOAX 191120
TAFLNK
TAF
KLNK 191120Z 1912/2012 18015KT P6SM SCT250 WS020/20045KT
     FM191500 19018G25KT P6SM SCT050 BKN250
     FM192200 18015KT P6SM OVC090
     FM200300 16010KT P6SM OVC090
     FM200600 15008KT P6SM OVC050
      TEMPO 2006/2010 5SM -SHRA OVC050=

USA.gov is the U.S. government's official web portal to all federal, state and local government web resources and services.